sensor_id;sensor_type;location;lat;lon;timestamp;temperature;humidity
58865;DHT22;45702;52.982;6.658;2023-07-31T00:01:46;16.10;99.90
58865;DHT22;45702;52.982;6.658;2023-07-31T00:04:12;16.10;99.90
58865;DHT22;45702;52.982;6.658;2023-07-31T00:06:38;16.10;99.90
58865;DHT22;45702;52.982;6.658;2023-07-31T00:09:03;16.10;99.90
58865;DHT22;45702;52.982;6.658;2023-07-31T00:11:29;16.00;99.90
58865;DHT22;45702;52.982;6.658;2023-07-31T00:13:55;16.00;99.90
58865;DHT22;45702;52.982;6.658;2023-07-31T00:16:20;16.00;99.90
58865;DHT22;45702;52.982;6.658;2023-07-31T00:18:46;15.90;99.90
58865;DHT22;45702;52.982;6.658;2023-07-31T00:21:12;15.90;99.90
58865;DHT22;45702;52.982;6.658;2023-07-31T00:23:38;15.80;99.90
58865;DHT22;45702;52.982;6.658;2023-07-31T00:26:03;15.80;99.90
58865;DHT22;45702;52.982;6.658;2023-07-31T00:28:29;15.80;99.90
58865;DHT22;45702;52.982;6.658;2023-07-31T00:30:54;15.80;99.90
58865;DHT22;45702;52.982;6.658;2023-07-31T00:33:20;15.80;99.90
58865;DHT22;45702;52.982;6.658;2023-07-31T00:35:46;15.70;99.90
58865;DHT22;45702;52.982;6.658;2023-07-31T00:38:12;15.70;99.90
58865;DHT22;45702;52.982;6.658;2023-07-31T00:40:37;15.70;99.90
58865;DHT22;45702;52.982;6.658;2023-07-31T00:43:03;15.70;99.90
58865;DHT22;45702;52.982;6.658;2023-07-31T00:45:29;15.70;99.90
58865;DHT22;45702;52.982;6.658;2023-07-31T00:47:55;15.70;99.90
58865;DHT22;45702;52.982;6.658;2023-07-31T00:50:47;15.70;99.90
58865;DHT22;45702;52.982;6.658;2023-07-31T00:53:13;15.70;99.90
58865;DHT22;45702;52.982;6.658;2023-07-31T00:55:39;15.70;99.90
58865;DHT22;45702;52.982;6.658;2023-07-31T00:58:05;15.70;99.90
58865;DHT22;45702;52.982;6.658;2023-07-31T01:00:31;15.70;99.90
58865;DHT22;45702;52.982;6.658;2023-07-31T01:02:57;15.60;99.90
58865;DHT22;45702;52.982;6.658;2023-07-31T01:05:36;15.60;99.90
58865;DHT22;45702;52.982;6.658;2023-07-31T01:11:27;15.60;99.90
58865;DHT22;45702;52.982;6.658;2023-07-31T01:13:55;15.60;99.90
58865;DHT22;45702;52.982;6.658;2023-07-31T01:16:21;15.60;99.90
58865;DHT22;45702;52.982;6.658;2023-07-31T01:18:46;15.60;99.90
58865;DHT22;45702;52.982;6.658;2023-07-31T01:24:36;15.50;99.90
58865;DHT22;45702;52.982;6.658;2023-07-31T01:27:04;15.60;99.90
58865;DHT22;45702;52.982;6.658;2023-07-31T01:32:29;15.50;99.90
58865;DHT22;45702;52.982;6.658;2023-07-31T01:34:57;15.50;99.90
58865;DHT22;45702;52.982;6.658;2023-07-31T01:37:28;15.50;99.90
58865;DHT22;45702;52.982;6.658;2023-07-31T01:39:55;15.50;99.90
58865;DHT22;45702;52.982;6.658;2023-07-31T01:42:21;15.50;99.90
58865;DHT22;45702;52.982;6.658;2023-07-31T01:44:46;15.50;99.90
58865;DHT22;45702;52.982;6.658;2023-07-31T01:47:12;15.50;99.90
58865;DHT22;45702;52.982;6.658;2023-07-31T01:49:38;15.50;99.90
58865;DHT22;45702;52.982;6.658;2023-07-31T01:52:04;15.50;99.90
58865;DHT22;45702;52.982;6.658;2023-07-31T01:54:30;15.50;99.90
58865;DHT22;45702;52.982;6.658;2023-07-31T01:56:55;15.50;99.90
58865;DHT22;45702;52.982;6.658;2023-07-31T01:59:21;15.50;99.90
58865;DHT22;45702;52.982;6.658;2023-07-31T02:01:47;15.50;99.90
58865;DHT22;45702;52.982;6.658;2023-07-31T02:04:12;15.50;99.90
58865;DHT22;45702;52.982;6.658;2023-07-31T02:06:39;15.50;99.90
58865;DHT22;45702;52.982;6.658;2023-07-31T02:09:04;15.50;99.90
58865;DHT22;45702;52.982;6.658;2023-07-31T02:11:30;15.50;99.90
58865;DHT22;45702;52.982;6.658;2023-07-31T02:13:56;15.50;99.90
58865;DHT22;45702;52.982;6.658;2023-07-31T02:16:22;15.50;99.90
58865;DHT22;45702;52.982;6.658;2023-07-31T02:18:47;15.50;99.90
58865;DHT22;45702;52.982;6.658;2023-07-31T02:21:13;15.50;99.90
58865;DHT22;45702;52.982;6.658;2023-07-31T02:23:39;15.50;99.90
58865;DHT22;45702;52.982;6.658;2023-07-31T02:26:04;15.50;99.90
58865;DHT22;45702;52.982;6.658;2023-07-31T02:28:30;15.50;99.90
58865;DHT22;45702;52.982;6.658;2023-07-31T02:30:56;15.50;99.90
58865;DHT22;45702;52.982;6.658;2023-07-31T02:33:21;15.50;99.90
58865;DHT22;45702;52.982;6.658;2023-07-31T02:35:47;15.50;99.90
58865;DHT22;45702;52.982;6.658;2023-07-31T02:38:13;15.50;99.90
58865;DHT22;45702;52.982;6.658;2023-07-31T02:40:41;15.50;99.90
58865;DHT22;45702;52.982;6.658;2023-07-31T02:43:08;15.60;99.90
58865;DHT22;45702;52.982;6.658;2023-07-31T02:45:34;15.50;99.90
58865;DHT22;45702;52.982;6.658;2023-07-31T02:48:00;15.60;99.90
58865;DHT22;45702;52.982;6.658;2023-07-31T02:50:26;15.50;99.90
58865;DHT22;45702;52.982;6.658;2023-07-31T02:52:53;15.60;99.90
58865;DHT22;45702;52.982;6.658;2023-07-31T02:55:18;15.50;99.90
58865;DHT22;45702;52.982;6.658;2023-07-31T02:57:44;15.60;99.90
58865;DHT22;45702;52.982;6.658;2023-07-31T03:00:10;15.60;99.90
58865;DHT22;45702;52.982;6.658;2023-07-31T03:02:36;15.60;99.90
58865;DHT22;45702;52.982;6.658;2023-07-31T03:05:02;15.60;99.90
58865;DHT22;45702;52.982;6.658;2023-07-31T03:07:27;15.60;99.90
58865;DHT22;45702;52.982;6.658;2023-07-31T03:09:54;15.60;99.90
58865;DHT22;45702;52.982;6.658;2023-07-31T03:12:19;15.60;99.90
58865;DHT22;45702;52.982;6.658;2023-07-31T03:14:45;15.60;99.90
58865;DHT22;45702;52.982;6.658;2023-07-31T03:17:11;15.70;99.90
58865;DHT22;45702;52.982;6.658;2023-07-31T03:19:37;15.70;99.90
58865;DHT22;45702;52.982;6.658;2023-07-31T03:22:03;15.70;99.90
58865;DHT22;45702;52.982;6.658;2023-07-31T03:24:29;15.70;99.90
58865;DHT22;45702;52.982;6.658;2023-07-31T03:26:55;15.70;99.90
58865;DHT22;45702;52.982;6.658;2023-07-31T03:29:20;15.80;99.90
58865;DHT22;45702;52.982;6.658;2023-07-31T03:31:46;15.70;99.90
58865;DHT22;45702;52.982;6.658;2023-07-31T03:34:12;15.80;99.90
58865;DHT22;45702;52.982;6.658;2023-07-31T03:36:37;15.80;99.90
58865;DHT22;45702;52.982;6.658;2023-07-31T03:39:03;15.80;99.90
58865;DHT22;45702;52.982;6.658;2023-07-31T03:41:29;15.80;99.90
58865;DHT22;45702;52.982;6.658;2023-07-31T03:43:55;15.80;99.90
58865;DHT22;45702;52.982;6.658;2023-07-31T03:46:24;15.80;99.90
58865;DHT22;45702;52.982;6.658;2023-07-31T03:48:50;15.90;99.90
58865;DHT22;45702;52.982;6.658;2023-07-31T03:51:16;15.80;99.90
58865;DHT22;45702;52.982;6.658;2023-07-31T03:53:43;15.80;99.90
58865;DHT22;45702;52.982;6.658;2023-07-31T03:56:09;15.80;99.90
58865;DHT22;45702;52.982;6.658;2023-07-31T03:58:34;15.80;99.90
58865;DHT22;45702;52.982;6.658;2023-07-31T04:01:01;15.90;99.90
58865;DHT22;45702;52.982;6.658;2023-07-31T04:03:27;15.90;99.90
58865;DHT22;45702;52.982;6.658;2023-07-31T04:05:54;15.90;99.90
58865;DHT22;45702;52.982;6.658;2023-07-31T04:08:21;15.90;99.90
58865;DHT22;45702;52.982;6.658;2023-07-31T04:10:47;15.90;99.90
58865;DHT22;45702;52.982;6.658;2023-07-31T04:13:12;15.90;99.90
58865;DHT22;45702;52.982;6.658;2023-07-31T04:15:38;16.00;99.90
58865;DHT22;45702;52.982;6.658;2023-07-31T04:18:05;15.90;99.90
58865;DHT22;45702;52.982;6.658;2023-07-31T04:20:30;16.00;99.90
58865;DHT22;45702;52.982;6.658;2023-07-31T04:22:57;16.00;99.90
58865;DHT22;45702;52.982;6.658;2023-07-31T04:25:23;16.00;99.90
58865;DHT22;45702;52.982;6.658;2023-07-31T04:27:48;16.00;99.90
58865;DHT22;45702;52.982;6.658;2023-07-31T04:30:14;16.00;99.90
58865;DHT22;45702;52.982;6.658;2023-07-31T04:32:40;16.00;99.90
58865;DHT22;45702;52.982;6.658;2023-07-31T04:35:06;16.00;99.90
58865;DHT22;45702;52.982;6.658;2023-07-31T04:37:31;16.00;99.90
58865;DHT22;45702;52.982;6.658;2023-07-31T04:39:57;16.00;99.90
58865;DHT22;45702;52.982;6.658;2023-07-31T04:42:23;16.00;99.90
58865;DHT22;45702;52.982;6.658;2023-07-31T04:44:48;16.00;99.90
58865;DHT22;45702;52.982;6.658;2023-07-31T04:47:14;16.00;99.90
58865;DHT22;45702;52.982;6.658;2023-07-31T04:49:40;16.00;99.90
58865;DHT22;45702;52.982;6.658;2023-07-31T04:52:06;16.00;99.90
58865;DHT22;45702;52.982;6.658;2023-07-31T04:54:31;16.00;99.90
58865;DHT22;45702;52.982;6.658;2023-07-31T04:56:57;16.00;99.90
58865;DHT22;45702;52.982;6.658;2023-07-31T04:59:23;16.00;99.90
58865;DHT22;45702;52.982;6.658;2023-07-31T05:01:48;16.00;99.90
58865;DHT22;45702;52.982;6.658;2023-07-31T05:04:15;16.00;99.90
58865;DHT22;45702;52.982;6.658;2023-07-31T05:06:41;16.00;99.90
58865;DHT22;45702;52.982;6.658;2023-07-31T05:09:07;16.00;99.90
58865;DHT22;45702;52.982;6.658;2023-07-31T05:11:34;16.10;99.90
58865;DHT22;45702;52.982;6.658;2023-07-31T05:14:00;16.00;99.90
58865;DHT22;45702;52.982;6.658;2023-07-31T05:16:26;16.10;99.90
58865;DHT22;45702;52.982;6.658;2023-07-31T05:18:52;16.10;99.90
58865;DHT22;45702;52.982;6.658;2023-07-31T05:21:17;16.10;99.90
58865;DHT22;45702;52.982;6.658;2023-07-31T05:23:43;16.10;99.90
58865;DHT22;45702;52.982;6.658;2023-07-31T05:26:09;16.20;99.90
58865;DHT22;45702;52.982;6.658;2023-07-31T05:28:38;16.20;99.90
58865;DHT22;45702;52.982;6.658;2023-07-31T05:31:04;16.20;99.90
58865;DHT22;45702;52.982;6.658;2023-07-31T05:33:30;16.20;99.90
58865;DHT22;45702;52.982;6.658;2023-07-31T05:35:57;16.20;99.90
58865;DHT22;45702;52.982;6.658;2023-07-31T05:38:23;16.30;99.90
58865;DHT22;45702;52.982;6.658;2023-07-31T05:40:48;16.30;99.90
58865;DHT22;45702;52.982;6.658;2023-07-31T05:43:14;16.40;99.90
58865;DHT22;45702;52.982;6.658;2023-07-31T05:45:42;16.40;99.90
58865;DHT22;45702;52.982;6.658;2023-07-31T05:48:08;16.40;99.90
58865;DHT22;45702;52.982;6.658;2023-07-31T05:50:34;16.50;99.90
58865;DHT22;45702;52.982;6.658;2023-07-31T05:53:00;16.50;99.90
58865;DHT22;45702;52.982;6.658;2023-07-31T05:55:26;16.50;99.90
58865;DHT22;45702;52.982;6.658;2023-07-31T05:57:54;16.50;99.90
58865;DHT22;45702;52.982;6.658;2023-07-31T06:00:20;16.60;99.90
58865;DHT22;45702;52.982;6.658;2023-07-31T06:02:47;16.60;99.90
58865;DHT22;45702;52.982;6.658;2023-07-31T06:05:13;16.60;99.90
58865;DHT22;45702;52.982;6.658;2023-07-31T06:07:38;16.70;99.90
58865;DHT22;45702;52.982;6.658;2023-07-31T06:10:05;16.70;99.90
58865;DHT22;45702;52.982;6.658;2023-07-31T06:12:34;16.70;99.90
58865;DHT22;45702;52.982;6.658;2023-07-31T06:15:01;16.70;99.90
58865;DHT22;45702;52.982;6.658;2023-07-31T06:17:27;16.70;99.90
58865;DHT22;45702;52.982;6.658;2023-07-31T06:19:53;16.80;99.90
58865;DHT22;45702;52.982;6.658;2023-07-31T06:22:19;16.80;99.90
58865;DHT22;45702;52.982;6.658;2023-07-31T06:24:45;16.80;99.90
58865;DHT22;45702;52.982;6.658;2023-07-31T06:27:11;16.80;99.90
58865;DHT22;45702;52.982;6.658;2023-07-31T06:29:37;16.80;99.90
58865;DHT22;45702;52.982;6.658;2023-07-31T06:32:03;16.90;99.90
58865;DHT22;45702;52.982;6.658;2023-07-31T06:34:29;16.90;99.90
58865;DHT22;45702;52.982;6.658;2023-07-31T06:36:55;16.90;99.90
58865;DHT22;45702;52.982;6.658;2023-07-31T06:39:21;16.90;99.90
58865;DHT22;45702;52.982;6.658;2023-07-31T06:41:47;16.90;99.90
58865;DHT22;45702;52.982;6.658;2023-07-31T06:44:13;16.90;99.90
58865;DHT22;45702;52.982;6.658;2023-07-31T06:46:38;17.00;99.90
58865;DHT22;45702;52.982;6.658;2023-07-31T06:49:04;17.00;99.90
58865;DHT22;45702;52.982;6.658;2023-07-31T06:51:30;17.00;99.90
58865;DHT22;45702;52.982;6.658;2023-07-31T06:53:57;17.00;99.90
58865;DHT22;45702;52.982;6.658;2023-07-31T06:56:25;17.10;99.90
58865;DHT22;45702;52.982;6.658;2023-07-31T06:58:51;17.10;99.90
58865;DHT22;45702;52.982;6.658;2023-07-31T07:01:17;17.10;99.90
58865;DHT22;45702;52.982;6.658;2023-07-31T07:03:43;17.10;99.90
58865;DHT22;45702;52.982;6.658;2023-07-31T07:06:08;17.10;99.90
58865;DHT22;45702;52.982;6.658;2023-07-31T07:08:34;17.10;99.90
58865;DHT22;45702;52.982;6.658;2023-07-31T07:11:00;17.10;99.90
58865;DHT22;45702;52.982;6.658;2023-07-31T07:13:25;17.10;99.90
58865;DHT22;45702;52.982;6.658;2023-07-31T07:15:51;17.10;99.90
58865;DHT22;45702;52.982;6.658;2023-07-31T07:18:18;17.10;99.90
58865;DHT22;45702;52.982;6.658;2023-07-31T07:20:49;17.10;99.90
58865;DHT22;45702;52.982;6.658;2023-07-31T07:23:15;17.00;99.90
58865;DHT22;45702;52.982;6.658;2023-07-31T07:25:41;17.00;99.90
58865;DHT22;45702;52.982;6.658;2023-07-31T07:28:07;17.00;99.90
58865;DHT22;45702;52.982;6.658;2023-07-31T07:30:33;17.00;99.90
58865;DHT22;45702;52.982;6.658;2023-07-31T07:32:58;17.00;99.90
58865;DHT22;45702;52.982;6.658;2023-07-31T07:35:24;17.00;99.90
58865;DHT22;45702;52.982;6.658;2023-07-31T07:37:50;17.00;99.90
58865;DHT22;45702;52.982;6.658;2023-07-31T07:40:16;17.00;99.90
58865;DHT22;45702;52.982;6.658;2023-07-31T07:42:44;17.00;99.90
58865;DHT22;45702;52.982;6.658;2023-07-31T07:45:10;17.00;99.90
58865;DHT22;45702;52.982;6.658;2023-07-31T07:47:36;17.00;99.90
58865;DHT22;45702;52.982;6.658;2023-07-31T07:50:02;17.00;99.90
58865;DHT22;45702;52.982;6.658;2023-07-31T07:52:27;16.90;99.90
58865;DHT22;45702;52.982;6.658;2023-07-31T07:54:53;17.00;99.90
58865;DHT22;45702;52.982;6.658;2023-07-31T07:57:19;17.00;99.90
58865;DHT22;45702;52.982;6.658;2023-07-31T07:59:45;16.90;99.90
58865;DHT22;45702;52.982;6.658;2023-07-31T08:02:10;16.90;99.90
58865;DHT22;45702;52.982;6.658;2023-07-31T08:04:36;16.90;99.90
58865;DHT22;45702;52.982;6.658;2023-07-31T08:07:02;16.90;99.90
58865;DHT22;45702;52.982;6.658;2023-07-31T08:09:28;16.90;99.90
58865;DHT22;45702;52.982;6.658;2023-07-31T08:11:53;16.90;99.90
58865;DHT22;45702;52.982;6.658;2023-07-31T08:14:20;16.90;99.90
58865;DHT22;45702;52.982;6.658;2023-07-31T08:16:45;16.90;99.90
58865;DHT22;45702;52.982;6.658;2023-07-31T08:19:11;17.00;99.90
58865;DHT22;45702;52.982;6.658;2023-07-31T08:21:41;17.00;99.90
58865;DHT22;45702;52.982;6.658;2023-07-31T08:24:13;17.00;99.90
58865;DHT22;45702;52.982;6.658;2023-07-31T08:26:38;17.00;99.90
58865;DHT22;45702;52.982;6.658;2023-07-31T08:29:04;17.00;99.90
58865;DHT22;45702;52.982;6.658;2023-07-31T08:31:30;17.10;99.90
58865;DHT22;45702;52.982;6.658;2023-07-31T08:33:56;17.10;99.90
58865;DHT22;45702;52.982;6.658;2023-07-31T08:36:22;17.10;99.90
58865;DHT22;45702;52.982;6.658;2023-07-31T08:38:47;17.20;99.90
58865;DHT22;45702;52.982;6.658;2023-07-31T08:41:13;17.20;99.90
58865;DHT22;45702;52.982;6.658;2023-07-31T08:43:39;17.20;99.90
58865;DHT22;45702;52.982;6.658;2023-07-31T08:46:05;17.30;99.90
58865;DHT22;45702;52.982;6.658;2023-07-31T08:48:32;17.20;99.90
58865;DHT22;45702;52.982;6.658;2023-07-31T08:50:58;17.20;99.90
58865;DHT22;45702;52.982;6.658;2023-07-31T08:53:24;17.30;99.90
58865;DHT22;45702;52.982;6.658;2023-07-31T08:55:52;17.30;99.90
58865;DHT22;45702;52.982;6.658;2023-07-31T08:58:19;17.30;99.90
58865;DHT22;45702;52.982;6.658;2023-07-31T09:00:48;17.30;99.90
58865;DHT22;45702;52.982;6.658;2023-07-31T09:03:17;17.40;99.90
58865;DHT22;45702;52.982;6.658;2023-07-31T09:05:44;17.40;99.90
58865;DHT22;45702;52.982;6.658;2023-07-31T09:08:12;17.40;99.90
58865;DHT22;45702;52.982;6.658;2023-07-31T09:10:42;17.50;99.90
58865;DHT22;45702;52.982;6.658;2023-07-31T09:13:09;17.50;99.90
58865;DHT22;45702;52.982;6.658;2023-07-31T09:15:35;17.60;99.90
58865;DHT22;45702;52.982;6.658;2023-07-31T09:18:02;17.60;99.90
58865;DHT22;45702;52.982;6.658;2023-07-31T09:20:28;17.70;99.90
58865;DHT22;45702;52.982;6.658;2023-07-31T09:22:55;17.80;99.90
58865;DHT22;45702;52.982;6.658;2023-07-31T09:25:23;17.90;99.90
58865;DHT22;45702;52.982;6.658;2023-07-31T09:28:03;17.90;99.90
58865;DHT22;45702;52.982;6.658;2023-07-31T09:30:30;17.90;99.90
58865;DHT22;45702;52.982;6.658;2023-07-31T09:33:04;17.90;99.90
58865;DHT22;45702;52.982;6.658;2023-07-31T09:35:34;17.90;99.90
58865;DHT22;45702;52.982;6.658;2023-07-31T09:38:09;17.90;99.90
58865;DHT22;45702;52.982;6.658;2023-07-31T09:40:41;17.90;99.90
58865;DHT22;45702;52.982;6.658;2023-07-31T09:43:12;17.90;99.90
58865;DHT22;45702;52.982;6.658;2023-07-31T09:45:40;17.90;99.90
58865;DHT22;45702;52.982;6.658;2023-07-31T09:48:11;17.90;99.90
58865;DHT22;45702;52.982;6.658;2023-07-31T09:50:38;17.90;99.90
58865;DHT22;45702;52.982;6.658;2023-07-31T09:53:05;17.90;99.90
58865;DHT22;45702;52.982;6.658;2023-07-31T09:55:32;17.90;99.90
58865;DHT22;45702;52.982;6.658;2023-07-31T09:57:58;17.90;99.90
58865;DHT22;45702;52.982;6.658;2023-07-31T10:00:24;17.90;99.90
58865;DHT22;45702;52.982;6.658;2023-07-31T10:02:54;17.90;99.90
58865;DHT22;45702;52.982;6.658;2023-07-31T10:05:23;17.90;99.90
58865;DHT22;45702;52.982;6.658;2023-07-31T10:07:54;18.00;99.90
58865;DHT22;45702;52.982;6.658;2023-07-31T10:10:22;18.00;99.90
58865;DHT22;45702;52.982;6.658;2023-07-31T10:12:48;18.10;99.90
58865;DHT22;45702;52.982;6.658;2023-07-31T10:15:16;18.10;99.90
58865;DHT22;45702;52.982;6.658;2023-07-31T10:17:44;18.10;99.90
58865;DHT22;45702;52.982;6.658;2023-07-31T10:20:12;18.20;99.90
58865;DHT22;45702;52.982;6.658;2023-07-31T10:22:40;18.30;99.90
58865;DHT22;45702;52.982;6.658;2023-07-31T10:25:08;18.30;99.90
58865;DHT22;45702;52.982;6.658;2023-07-31T10:27:35;18.40;99.90
58865;DHT22;45702;52.982;6.658;2023-07-31T10:30:03;18.40;99.90
58865;DHT22;45702;52.982;6.658;2023-07-31T10:32:30;18.50;99.90
58865;DHT22;45702;52.982;6.658;2023-07-31T10:34:57;18.60;99.90
58865;DHT22;45702;52.982;6.658;2023-07-31T10:37:25;18.70;99.90
58865;DHT22;45702;52.982;6.658;2023-07-31T10:40:11;18.80;99.90
58865;DHT22;45702;52.982;6.658;2023-07-31T10:42:57;19.00;99.90
58865;DHT22;45702;52.982;6.658;2023-07-31T10:45:33;19.00;99.90
58865;DHT22;45702;52.982;6.658;2023-07-31T10:48:01;19.10;99.90
58865;DHT22;45702;52.982;6.658;2023-07-31T10:50:27;19.20;99.90
58865;DHT22;45702;52.982;6.658;2023-07-31T10:52:55;19.20;99.90
58865;DHT22;45702;52.982;6.658;2023-07-31T10:57:50;19.20;99.90
58865;DHT22;45702;52.982;6.658;2023-07-31T11:00:25;19.20;99.90
58865;DHT22;45702;52.982;6.658;2023-07-31T11:08:26;19.20;99.90
58865;DHT22;45702;52.982;6.658;2023-07-31T11:11:06;19.20;99.90
58865;DHT22;45702;52.982;6.658;2023-07-31T11:13:40;19.20;99.90
58865;DHT22;45702;52.982;6.658;2023-07-31T11:16:07;19.20;99.90
58865;DHT22;45702;52.982;6.658;2023-07-31T11:18:33;19.30;99.90
58865;DHT22;45702;52.982;6.658;2023-07-31T11:20:58;19.30;99.90
58865;DHT22;45702;52.982;6.658;2023-07-31T11:23:24;19.30;99.90
58865;DHT22;45702;52.982;6.658;2023-07-31T11:25:50;19.40;99.90
58865;DHT22;45702;52.982;6.658;2023-07-31T11:28:17;19.40;99.90
58865;DHT22;45702;52.982;6.658;2023-07-31T11:30:44;19.40;99.90
58865;DHT22;45702;52.982;6.658;2023-07-31T11:33:12;19.40;99.90
58865;DHT22;45702;52.982;6.658;2023-07-31T11:35:45;19.40;99.90
58865;DHT22;45702;52.982;6.658;2023-07-31T11:38:25;19.40;99.90
58865;DHT22;45702;52.982;6.658;2023-07-31T11:40:57;19.30;99.90
58865;DHT22;45702;52.982;6.658;2023-07-31T11:43:24;19.30;99.90
58865;DHT22;45702;52.982;6.658;2023-07-31T11:45:54;19.20;99.90
58865;DHT22;45702;52.982;6.658;2023-07-31T11:48:28;19.20;99.90
58865;DHT22;45702;52.982;6.658;2023-07-31T11:50:57;19.10;99.90
58865;DHT22;45702;52.982;6.658;2023-07-31T11:53:51;19.00;99.90
58865;DHT22;45702;52.982;6.658;2023-07-31T11:56:18;19.00;99.90
58865;DHT22;45702;52.982;6.658;2023-07-31T11:58:46;19.10;99.90
58865;DHT22;45702;52.982;6.658;2023-07-31T12:01:14;19.10;99.90
58865;DHT22;45702;52.982;6.658;2023-07-31T12:03:40;19.10;99.90
58865;DHT22;45702;52.982;6.658;2023-07-31T12:06:08;19.00;99.90
58865;DHT22;45702;52.982;6.658;2023-07-31T12:08:34;19.00;99.90
58865;DHT22;45702;52.982;6.658;2023-07-31T12:11:08;19.00;99.90
58865;DHT22;45702;52.982;6.658;2023-07-31T12:13:40;19.00;99.90
58865;DHT22;45702;52.982;6.658;2023-07-31T12:16:06;19.00;99.90
58865;DHT22;45702;52.982;6.658;2023-07-31T12:18:36;19.00;99.90
58865;DHT22;45702;52.982;6.658;2023-07-31T12:21:06;19.00;99.90
58865;DHT22;45702;52.982;6.658;2023-07-31T12:23:33;19.00;99.90
58865;DHT22;45702;52.982;6.658;2023-07-31T12:28:28;18.90;99.90
58865;DHT22;45702;52.982;6.658;2023-07-31T12:30:58;18.90;99.90
58865;DHT22;45702;52.982;6.658;2023-07-31T12:33:31;18.90;99.90
58865;DHT22;45702;52.982;6.658;2023-07-31T12:35:57;18.80;99.90
58865;DHT22;45702;52.982;6.658;2023-07-31T12:38:23;18.80;99.90
58865;DHT22;45702;52.982;6.658;2023-07-31T12:40:49;18.70;99.90
58865;DHT22;45702;52.982;6.658;2023-07-31T12:43:15;18.70;99.90
58865;DHT22;45702;52.982;6.658;2023-07-31T12:45:41;18.70;99.90
58865;DHT22;45702;52.982;6.658;2023-07-31T12:48:06;18.70;99.90
58865;DHT22;45702;52.982;6.658;2023-07-31T12:50:32;18.70;99.90
58865;DHT22;45702;52.982;6.658;2023-07-31T12:52:58;18.70;99.90
58865;DHT22;45702;52.982;6.658;2023-07-31T12:55:24;18.80;99.90
58865;DHT22;45702;52.982;6.658;2023-07-31T12:57:50;18.80;99.90
58865;DHT22;45702;52.982;6.658;2023-07-31T13:00:16;18.90;99.90
58865;DHT22;45702;52.982;6.658;2023-07-31T13:02:42;18.90;99.90
58865;DHT22;45702;52.982;6.658;2023-07-31T13:05:08;18.90;99.90
58865;DHT22;45702;52.982;6.658;2023-07-31T13:07:34;18.90;99.90
58865;DHT22;45702;52.982;6.658;2023-07-31T13:10:00;18.90;99.90
58865;DHT22;45702;52.982;6.658;2023-07-31T13:12:26;18.90;99.90
58865;DHT22;45702;52.982;6.658;2023-07-31T13:14:51;19.00;99.90
58865;DHT22;45702;52.982;6.658;2023-07-31T13:17:18;19.00;99.90
58865;DHT22;45702;52.982;6.658;2023-07-31T13:19:43;19.00;99.90
58865;DHT22;45702;52.982;6.658;2023-07-31T13:22:09;19.10;99.90
58865;DHT22;45702;52.982;6.658;2023-07-31T13:24:35;19.10;99.90
58865;DHT22;45702;52.982;6.658;2023-07-31T13:27:01;19.20;99.90
58865;DHT22;45702;52.982;6.658;2023-07-31T13:29:26;19.20;99.90
58865;DHT22;45702;52.982;6.658;2023-07-31T13:31:53;19.30;99.90
58865;DHT22;45702;52.982;6.658;2023-07-31T13:34:18;19.30;99.90
58865;DHT22;45702;52.982;6.658;2023-07-31T13:36:44;19.30;99.90
58865;DHT22;45702;52.982;6.658;2023-07-31T13:39:10;19.30;99.90
58865;DHT22;45702;52.982;6.658;2023-07-31T13:41:35;19.40;99.90
58865;DHT22;45702;52.982;6.658;2023-07-31T13:44:01;19.40;99.90
58865;DHT22;45702;52.982;6.658;2023-07-31T13:46:27;19.40;99.90
58865;DHT22;45702;52.982;6.658;2023-07-31T13:48:53;19.50;99.90
58865;DHT22;45702;52.982;6.658;2023-07-31T13:51:21;19.60;99.90
58865;DHT22;45702;52.982;6.658;2023-07-31T13:53:47;19.60;99.90
58865;DHT22;45702;52.982;6.658;2023-07-31T13:56:13;19.70;99.90
58865;DHT22;45702;52.982;6.658;2023-07-31T13:58:39;19.80;99.90
58865;DHT22;45702;52.982;6.658;2023-07-31T14:01:05;19.80;99.90
58865;DHT22;45702;52.982;6.658;2023-07-31T14:03:31;19.90;99.90
58865;DHT22;45702;52.982;6.658;2023-07-31T14:05:57;20.00;99.90
58865;DHT22;45702;52.982;6.658;2023-07-31T14:08:22;20.00;99.90
58865;DHT22;45702;52.982;6.658;2023-07-31T14:10:48;20.10;99.90
58865;DHT22;45702;52.982;6.658;2023-07-31T14:13:14;20.10;99.90
58865;DHT22;45702;52.982;6.658;2023-07-31T14:15:43;20.00;99.90
58865;DHT22;45702;52.982;6.658;2023-07-31T14:18:09;20.00;99.90
58865;DHT22;45702;52.982;6.658;2023-07-31T14:20:35;19.90;99.90
58865;DHT22;45702;52.982;6.658;2023-07-31T14:23:02;19.90;99.90
58865;DHT22;45702;52.982;6.658;2023-07-31T14:25:28;19.90;99.90
58865;DHT22;45702;52.982;6.658;2023-07-31T14:27:54;19.90;99.90
58865;DHT22;45702;52.982;6.658;2023-07-31T14:30:19;19.80;99.90
58865;DHT22;45702;52.982;6.658;2023-07-31T14:32:46;19.80;99.90
58865;DHT22;45702;52.982;6.658;2023-07-31T14:35:11;19.90;99.90
58865;DHT22;45702;52.982;6.658;2023-07-31T14:37:43;19.90;99.90
58865;DHT22;45702;52.982;6.658;2023-07-31T14:40:10;20.00;99.90
58865;DHT22;45702;52.982;6.658;2023-07-31T14:42:36;20.00;99.90
58865;DHT22;45702;52.982;6.658;2023-07-31T14:45:03;20.00;99.90
58865;DHT22;45702;52.982;6.658;2023-07-31T14:47:30;20.00;99.90
58865;DHT22;45702;52.982;6.658;2023-07-31T14:49:59;20.00;99.90
58865;DHT22;45702;52.982;6.658;2023-07-31T14:52:25;20.00;99.90
58865;DHT22;45702;52.982;6.658;2023-07-31T14:54:51;19.90;99.90
58865;DHT22;45702;52.982;6.658;2023-07-31T14:57:17;19.90;99.90
58865;DHT22;45702;52.982;6.658;2023-07-31T14:59:44;19.90;99.90
58865;DHT22;45702;52.982;6.658;2023-07-31T15:02:10;19.80;99.90
58865;DHT22;45702;52.982;6.658;2023-07-31T15:04:36;19.80;99.90
58865;DHT22;45702;52.982;6.658;2023-07-31T15:07:02;19.80;99.90
58865;DHT22;45702;52.982;6.658;2023-07-31T15:09:28;19.80;99.90
58865;DHT22;45702;52.982;6.658;2023-07-31T15:11:55;19.80;99.90
58865;DHT22;45702;52.982;6.658;2023-07-31T15:14:21;19.80;99.90
58865;DHT22;45702;52.982;6.658;2023-07-31T15:16:47;19.80;99.90
58865;DHT22;45702;52.982;6.658;2023-07-31T15:19:13;19.80;99.90
58865;DHT22;45702;52.982;6.658;2023-07-31T15:21:39;19.70;99.90
58865;DHT22;45702;52.982;6.658;2023-07-31T15:24:05;19.80;99.90
58865;DHT22;45702;52.982;6.658;2023-07-31T15:26:31;19.80;99.90
58865;DHT22;45702;52.982;6.658;2023-07-31T15:29:04;19.70;99.90
58865;DHT22;45702;52.982;6.658;2023-07-31T15:31:43;19.70;99.90
58865;DHT22;45702;52.982;6.658;2023-07-31T15:34:09;19.70;99.90
58865;DHT22;45702;52.982;6.658;2023-07-31T15:36:34;19.70;99.90
58865;DHT22;45702;52.982;6.658;2023-07-31T15:39:00;19.70;99.90
58865;DHT22;45702;52.982;6.658;2023-07-31T15:41:26;19.60;99.90
58865;DHT22;45702;52.982;6.658;2023-07-31T15:43:52;19.60;99.90
58865;DHT22;45702;52.982;6.658;2023-07-31T15:46:18;19.60;99.90
58865;DHT22;45702;52.982;6.658;2023-07-31T15:48:44;19.60;99.90